createdAt,value
2017-07-08T00:00:13.933Z,0
2017-07-08T00:00:54.454Z,0
2017-07-08T00:01:34.985Z,0
2017-07-08T00:02:15.482Z,0
2017-07-08T00:02:56.011Z,0
2017-07-08T00:03:36.544Z,0
2017-07-08T00:04:17.065Z,0
2017-07-08T00:04:57.587Z,0
2017-07-08T00:05:38.108Z,0
2017-07-08T00:06:18.656Z,0
2017-07-08T00:06:59.225Z,0
2017-07-08T00:07:39.761Z,0
2017-07-08T00:08:20.465Z,0
2017-07-08T00:09:00.969Z,0
2017-07-08T00:09:41.487Z,0
2017-07-08T00:10:21.989Z,0
2017-07-08T00:11:02.527Z,0
2017-07-08T00:11:43.056Z,0
2017-07-08T00:12:23.594Z,0
2017-07-08T00:13:04.257Z,0
2017-07-08T00:13:44.695Z,0
2017-07-08T00:14:25.226Z,0
2017-07-08T00:15:05.714Z,0
2017-07-08T00:15:46.207Z,0
2017-07-08T00:16:26.716Z,0
2017-07-08T00:17:07.222Z,0
2017-07-08T00:17:48.044Z,0
2017-07-08T00:18:28.522Z,0
2017-07-08T00:19:09.034Z,0
2017-07-08T00:19:49.587Z,0
2017-07-08T00:20:30.128Z,0
2017-07-08T00:21:10.622Z,0
2017-07-08T00:21:51.141Z,0
2017-07-08T00:22:31.676Z,0
2017-07-08T00:23:12.185Z,0
2017-07-08T00:23:52.692Z,0
2017-07-08T00:24:33.219Z,0
2017-07-08T00:25:13.720Z,0
2017-07-08T00:25:54.249Z,0
2017-07-08T00:26:34.770Z,0
2017-07-08T00:27:15.282Z,0
2017-07-08T00:27:55.803Z,0
2017-07-08T00:28:36.336Z,0
2017-07-08T00:29:16.857Z,0
2017-07-08T00:29:57.373Z,0
2017-07-08T00:30:37.899Z,0
2017-07-08T00:31:18.403Z,0
2017-07-08T00:31:58.916Z,0
2017-07-08T00:32:39.437Z,0
2017-07-08T00:33:20.049Z,0
2017-07-08T00:34:00.611Z,0
2017-07-08T00:34:41.121Z,0
2017-07-08T00:35:21.633Z,0
2017-07-08T00:36:02.131Z,0
2017-07-08T00:36:42.644Z,0
2017-07-08T00:37:23.177Z,0
2017-07-08T00:38:03.736Z,0
2017-07-08T00:38:44.286Z,0
2017-07-08T00:39:24.795Z,0
2017-07-08T00:40:05.439Z,0
2017-07-08T00:40:45.973Z,0
2017-07-08T00:41:26.458Z,0
2017-07-08T00:42:06.956Z,0
2017-07-08T00:42:47.483Z,0
2017-07-08T00:43:28.029Z,0
2017-07-08T00:44:08.541Z,0
2017-07-08T00:44:49.057Z,0
2017-07-08T00:45:29.541Z,0
2017-07-08T00:46:10.078Z,0
2017-07-08T00:46:50.605Z,0
2017-07-08T00:47:31.170Z,0
2017-07-08T00:48:11.674Z,0
2017-07-08T00:48:52.183Z,0
2017-07-08T00:49:32.719Z,0
2017-07-08T00:50:13.237Z,0
2017-07-08T00:50:53.770Z,0
2017-07-08T00:51:34.282Z,0
2017-07-08T00:52:14.807Z,0
2017-07-08T00:52:55.343Z,0
2017-07-08T00:53:35.870Z,0
2017-07-08T00:54:16.390Z,0
2017-07-08T00:54:56.910Z,0
2017-07-08T00:55:37.420Z,0
2017-07-08T00:56:17.947Z,0
2017-07-08T00:56:58.468Z,0
2017-07-08T00:57:38.957Z,0
2017-07-08T00:58:19.442Z,0
2017-07-08T00:58:59.974Z,0
2017-07-08T00:59:40.477Z,0
2017-07-08T01:00:20.992Z,0
2017-07-08T01:02:54.728Z,0
2017-07-08T01:03:35.238Z,0
2017-07-08T01:04:15.744Z,0
2017-07-08T01:04:56.281Z,0
2017-07-08T01:05:36.806Z,0
2017-07-08T01:06:17.394Z,0
2017-07-08T01:06:57.836Z,0
2017-07-08T01:07:38.326Z,0
2017-07-08T01:08:18.835Z,0
2017-07-08T01:08:59.354Z,0
2017-07-08T01:09:39.860Z,0
2017-07-08T01:10:20.396Z,0
2017-07-08T01:11:00.923Z,0
2017-07-08T01:11:41.431Z,0
2017-07-08T01:12:21.941Z,0
2017-07-08T01:13:02.472Z,0
2017-07-08T01:13:42.964Z,0
2017-07-08T01:14:23.475Z,0
2017-07-08T01:15:03.991Z,0
2017-07-08T01:15:44.501Z,0
2017-07-08T01:16:25.011Z,0
2017-07-08T01:17:05.506Z,0
2017-07-08T01:17:46.043Z,0
2017-07-08T01:18:26.556Z,0
2017-07-08T01:19:07.082Z,0
2017-07-08T01:19:47.602Z,0
2017-07-08T01:20:28.134Z,0
2017-07-08T01:21:08.641Z,0
2017-07-08T01:21:49.120Z,0
2017-07-08T01:22:29.653Z,0
2017-07-08T01:23:10.305Z,0
2017-07-08T01:23:50.836Z,0
2017-07-08T01:24:31.312Z,0
2017-07-08T01:25:11.846Z,0
2017-07-08T01:25:52.371Z,0
2017-07-08T01:26:32.919Z,0
2017-07-08T01:27:13.421Z,0
2017-07-08T01:27:53.944Z,0
2017-07-08T01:28:34.490Z,0
2017-07-08T01:29:14.983Z,0
2017-07-08T01:29:55.505Z,0
2017-07-08T01:30:36.028Z,0
2017-07-08T01:31:16.538Z,0
2017-07-08T01:31:57.077Z,0
2017-07-08T01:32:37.590Z,0
2017-07-08T01:33:18.101Z,0
2017-07-08T01:33:58.607Z,0
2017-07-08T01:34:39.130Z,0
2017-07-08T01:35:19.624Z,0
2017-07-08T01:36:00.150Z,0
2017-07-08T01:36:40.660Z,0
2017-07-08T01:37:21.198Z,0
2017-07-08T01:38:01.710Z,0
2017-07-08T01:38:42.202Z,0
2017-07-08T01:39:22.715Z,0
2017-07-08T01:40:03.278Z,0
2017-07-08T01:40:43.799Z,0
2017-07-08T01:41:24.333Z,0
2017-07-08T01:42:04.829Z,0
2017-07-08T01:42:45.343Z,0
2017-07-08T01:43:25.838Z,0
2017-07-08T01:44:06.394Z,0
2017-07-08T01:44:46.893Z,0
2017-07-08T01:45:27.355Z,0
2017-07-08T01:46:07.868Z,0
2017-07-08T01:46:48.385Z,0
2017-07-08T01:47:28.929Z,0
2017-07-08T01:48:09.457Z,0
2017-07-08T01:48:49.964Z,0
2017-07-08T01:49:30.502Z,0
2017-07-08T01:50:11.034Z,0
2017-07-08T01:50:51.554Z,0
2017-07-08T01:51:32.049Z,0
2017-07-08T01:52:12.581Z,0
2017-07-08T01:52:53.101Z,0
2017-07-08T01:53:33.609Z,0
2017-07-08T01:54:14.162Z,0
2017-07-08T01:54:54.695Z,0
2017-07-08T01:55:35.190Z,0
2017-07-08T01:56:15.719Z,0
2017-07-08T01:56:56.236Z,0
2017-07-08T01:57:36.762Z,0
2017-07-08T01:58:17.279Z,0
2017-07-08T01:58:57.784Z,0
2017-07-08T01:59:38.296Z,0
2017-07-08T02:00:18.816Z,0
2017-07-08T02:00:59.339Z,0
2017-07-08T02:01:39.881Z,0
2017-07-08T02:02:20.380Z,0
2017-07-08T02:03:00.917Z,0
2017-07-08T02:03:41.446Z,0
2017-07-08T02:04:21.971Z,0
2017-07-08T02:05:02.473Z,0
2017-07-08T02:05:43.020Z,0
2017-07-08T02:06:23.537Z,0
2017-07-08T02:07:04.033Z,0
2017-07-08T02:07:44.676Z,0
2017-07-08T02:08:25.185Z,0
2017-07-08T02:09:05.692Z,0
2017-07-08T02:09:46.178Z,0
2017-07-08T02:10:26.693Z,0
2017-07-08T02:11:07.220Z,0
2017-07-08T02:11:47.752Z,0
2017-07-08T02:12:28.223Z,0
2017-07-08T02:13:08.737Z,0
2017-07-08T02:13:49.250Z,0
2017-07-08T02:14:29.750Z,0
2017-07-08T02:15:10.245Z,0
2017-07-08T02:15:50.763Z,0
2017-07-08T02:16:31.288Z,0
2017-07-08T02:17:11.789Z,0
2017-07-08T02:17:52.335Z,0
2017-07-08T02:18:32.830Z,0
2017-07-08T02:19:13.341Z,0
2017-07-08T02:19:53.855Z,0
2017-07-08T02:20:34.379Z,0
2017-07-08T02:21:14.940Z,0
2017-07-08T02:21:55.472Z,0
2017-07-08T02:22:35.983Z,0
2017-07-08T02:23:16.517Z,0
2017-07-08T02:23:57.041Z,0
2017-07-08T02:24:37.552Z,0
2017-07-08T02:25:18.052Z,0
2017-07-08T02:25:58.560Z,0
2017-07-08T02:26:39.082Z,0
2017-07-08T02:27:19.587Z,0
2017-07-08T02:28:00.096Z,0
2017-07-08T02:28:40.667Z,0
2017-07-08T02:29:21.131Z,0
2017-07-08T02:30:01.626Z,0
2017-07-08T02:30:42.147Z,0
2017-07-08T02:31:22.675Z,0
2017-07-08T02:32:03.183Z,0
2017-07-08T02:32:43.683Z,0
2017-07-08T02:33:24.226Z,0
2017-07-08T02:34:04.719Z,0
2017-07-08T02:34:45.224Z,0
2017-07-08T02:35:25.775Z,0
2017-07-08T02:36:06.272Z,0
2017-07-08T02:36:46.785Z,0
2017-07-08T02:37:27.283Z,0
2017-07-08T02:38:07.804Z,0
2017-07-08T02:38:48.325Z,0
2017-07-08T02:39:28.828Z,0
2017-07-08T02:40:09.388Z,0
2017-07-08T02:40:49.914Z,0
2017-07-08T02:41:30.444Z,0
2017-07-08T02:42:10.942Z,0
2017-07-08T02:42:51.434Z,0
2017-07-08T02:43:31.945Z,0
2017-07-08T02:44:12.485Z,0
2017-07-08T02:44:52.971Z,0
2017-07-08T02:45:33.464Z,0
2017-07-08T02:46:13.983Z,0
2017-07-08T02:46:54.508Z,0
2017-07-08T02:47:35.020Z,0
2017-07-08T02:48:15.556Z,0
2017-07-08T02:48:56.039Z,0
2017-07-08T02:49:36.561Z,0
2017-07-08T02:50:17.081Z,0
2017-07-08T02:50:57.588Z,0
2017-07-08T02:51:38.212Z,0
2017-07-08T02:52:18.725Z,4
2017-07-08T02:52:59.224Z,4
2017-07-08T02:53:39.754Z,4
2017-07-08T02:54:20.287Z,0
2017-07-08T02:55:00.780Z,0
2017-07-08T02:55:41.388Z,0
2017-07-08T02:56:21.868Z,4
2017-07-08T02:57:02.384Z,4
2017-07-08T02:57:42.926Z,4
2017-07-08T02:58:23.436Z,4
2017-07-08T02:59:03.955Z,8
2017-07-08T02:59:44.502Z,4
2017-07-08T03:00:25.014Z,4
2017-07-08T03:01:05.523Z,4
2017-07-08T03:01:46.074Z,8
2017-07-08T03:02:26.549Z,4
2017-07-08T03:03:07.075Z,8
2017-07-08T03:03:47.605Z,8
2017-07-08T03:04:28.150Z,8
2017-07-08T03:05:08.618Z,12
2017-07-08T03:05:49.087Z,12
2017-07-08T03:06:29.625Z,12
2017-07-08T03:07:10.142Z,16
2017-07-08T03:07:50.655Z,16
2017-07-08T03:08:31.179Z,16
2017-07-08T03:09:11.714Z,16
2017-07-08T03:09:52.201Z,20
2017-07-08T03:10:32.707Z,20
2017-07-08T03:11:13.241Z,24
2017-07-08T03:11:53.746Z,24
2017-07-08T03:12:34.272Z,28
2017-07-08T03:13:14.813Z,28
2017-07-08T03:13:55.320Z,36
2017-07-08T03:14:35.813Z,36
2017-07-08T03:15:16.335Z,36
2017-07-08T03:15:56.838Z,44
2017-07-08T03:16:37.366Z,48
2017-07-08T03:17:17.869Z,48
2017-07-08T03:17:58.384Z,52
2017-07-08T03:18:38.934Z,60
2017-07-08T03:19:19.415Z,60
2017-07-08T03:19:59.935Z,64
2017-07-08T03:20:40.457Z,68
2017-07-08T03:21:21.002Z,76
2017-07-08T03:22:01.506Z,80
2017-07-08T03:22:42.035Z,84
2017-07-08T03:23:22.562Z,88
2017-07-08T03:24:03.084Z,96
2017-07-08T03:24:43.607Z,104
2017-07-08T03:25:24.129Z,112
2017-07-08T03:26:04.649Z,116
2017-07-08T03:26:45.154Z,128
2017-07-08T03:27:25.679Z,132
2017-07-08T03:28:06.192Z,140
2017-07-08T03:28:46.693Z,148
2017-07-08T03:29:27.220Z,160
2017-07-08T03:30:07.729Z,168
2017-07-08T03:30:48.273Z,176
2017-07-08T03:31:28.773Z,184
2017-07-08T03:32:09.296Z,192
2017-07-08T03:32:49.799Z,200
2017-07-08T03:33:30.316Z,212
2017-07-08T03:34:10.834Z,224
2017-07-08T03:34:51.331Z,236
2017-07-08T03:35:31.852Z,252
2017-07-08T03:36:12.396Z,260
2017-07-08T03:36:52.878Z,276
2017-07-08T03:37:33.347Z,288
2017-07-08T03:38:13.868Z,304
2017-07-08T03:38:54.377Z,316
2017-07-08T03:39:34.881Z,336
2017-07-08T03:40:15.393Z,352
2017-07-08T03:40:55.912Z,372
2017-07-08T03:41:36.436Z,388
2017-07-08T03:42:16.940Z,404
2017-07-08T03:42:57.481Z,420
2017-07-08T03:43:37.983Z,436
2017-07-08T03:44:18.486Z,460
2017-07-08T03:44:59.000Z,480
2017-07-08T03:45:39.585Z,504
2017-07-08T03:46:20.087Z,528
2017-07-08T03:47:00.555Z,552
2017-07-08T03:47:41.080Z,572
2017-07-08T03:48:21.594Z,596
2017-07-08T03:49:02.127Z,620
2017-07-08T03:49:42.647Z,644
2017-07-08T03:50:23.172Z,672
2017-07-08T03:51:03.710Z,700
2017-07-08T03:51:44.235Z,728
2017-07-08T03:52:24.734Z,756
2017-07-08T03:53:05.252Z,784
2017-07-08T03:53:45.746Z,812
2017-07-08T03:54:26.646Z,844
2017-07-08T03:55:07.225Z,872
2017-07-08T03:55:48.413Z,908
2017-07-08T03:56:28.929Z,940
2017-07-08T03:57:09.486Z,972
2017-07-08T03:57:49.981Z,1004
2017-07-08T03:58:30.454Z,1036
2017-07-08T03:59:10.941Z,1068
2017-07-08T03:59:51.665Z,1096
2017-07-08T04:00:32.518Z,1124
2017-07-08T04:01:13.093Z,1152
2017-07-08T04:01:53.608Z,1180
2017-07-08T04:02:34.129Z,1212
2017-07-08T04:03:14.657Z,1248
2017-07-08T04:03:55.184Z,1280
2017-07-08T04:04:35.690Z,1312
2017-07-08T04:05:16.211Z,1344
2017-07-08T04:05:56.729Z,1372
2017-07-08T04:06:37.242Z,1404
2017-07-08T04:07:17.764Z,1436
2017-07-08T04:07:58.290Z,1464
2017-07-08T04:08:38.792Z,1496
2017-07-08T04:09:19.317Z,1532
2017-07-08T04:09:59.837Z,1564
2017-07-08T04:10:40.341Z,1600
2017-07-08T04:11:20.870Z,1632
2017-07-08T04:12:01.424Z,1668
2017-07-08T04:12:41.892Z,1704
2017-07-08T04:13:22.414Z,1740
2017-07-08T04:14:02.936Z,1772
2017-07-08T04:14:43.435Z,1800
2017-07-08T04:15:23.962Z,1832
2017-07-08T04:16:04.471Z,1872
2017-07-08T04:16:44.960Z,1912
2017-07-08T04:17:25.467Z,1944
2017-07-08T04:18:05.974Z,1984
2017-07-08T04:18:46.513Z,2028
2017-07-08T04:19:27.002Z,2068
2017-07-08T04:20:07.520Z,2104
2017-07-08T04:20:48.085Z,2144
2017-07-08T04:21:28.584Z,2180
2017-07-08T04:22:09.040Z,2220
2017-07-08T04:22:49.557Z,2252
2017-07-08T04:23:30.074Z,2288
2017-07-08T04:24:10.623Z,2324
2017-07-08T04:24:51.118Z,2364
2017-07-08T04:25:31.618Z,2404
2017-07-08T04:26:12.148Z,2444
2017-07-08T04:26:52.646Z,2496
2017-07-08T04:27:33.164Z,2552
2017-07-08T04:28:13.671Z,2620
2017-07-08T04:28:54.176Z,2688
2017-07-08T04:29:34.693Z,2772
2017-07-08T04:30:15.211Z,2920
2017-07-08T04:30:55.722Z,3092
2017-07-08T04:31:36.209Z,3280
2017-07-08T04:32:16.745Z,3500
2017-07-08T04:32:57.246Z,3760
2017-07-08T04:33:37.776Z,4108
2017-07-08T04:34:18.287Z,4400
2017-07-08T04:34:58.836Z,4636
2017-07-08T04:35:39.348Z,4828
2017-07-08T04:36:19.995Z,4932
2017-07-08T04:37:00.522Z,4940
2017-07-08T04:37:41.036Z,4920
2017-07-08T04:38:21.555Z,4928
2017-07-08T04:39:02.046Z,4964
2017-07-08T04:39:42.560Z,5036
2017-07-08T04:40:23.065Z,5132
2017-07-08T04:41:03.586Z,5316
2017-07-08T04:41:44.091Z,5536
2017-07-08T04:42:24.847Z,5676
2017-07-08T04:43:05.354Z,6120
2017-07-08T04:43:45.868Z,6980
2017-07-08T04:44:26.399Z,7560
2017-07-08T04:45:06.883Z,7220
2017-07-08T04:45:47.370Z,6184
2017-07-08T04:46:27.890Z,5332
2017-07-08T04:47:08.416Z,4940
2017-07-08T04:47:48.950Z,4652
2017-07-08T04:48:29.468Z,4544
2017-07-08T04:49:09.989Z,4364
2017-07-08T04:49:50.516Z,3948
2017-07-08T04:50:31.038Z,3740
2017-07-08T04:51:11.550Z,3564
2017-07-08T04:51:52.122Z,3436
2017-07-08T04:52:32.629Z,3428
2017-07-08T04:53:13.150Z,3460
2017-07-08T04:53:53.661Z,3512
2017-07-08T04:54:34.168Z,3592
2017-07-08T04:55:14.731Z,3688
2017-07-08T04:55:55.259Z,3884
2017-07-08T04:56:35.812Z,4072
2017-07-08T04:57:16.316Z,4124
2017-07-08T04:57:56.828Z,4108
2017-07-08T04:58:37.381Z,4044
2017-07-08T04:59:17.932Z,4024
2017-07-08T04:59:58.440Z,4080
2017-07-08T05:00:38.931Z,4168
2017-07-08T05:01:19.458Z,4304
2017-07-08T05:02:00.009Z,4608
2017-07-08T05:02:40.508Z,4984
2017-07-08T05:03:21.020Z,5084
2017-07-08T05:04:01.527Z,4980
2017-07-08T05:04:42.036Z,4740
2017-07-08T05:05:22.581Z,4592
2017-07-08T05:06:03.105Z,4632
2017-07-08T05:06:43.571Z,4736
2017-07-08T05:07:24.064Z,4920
2017-07-08T05:08:04.594Z,5068
2017-07-08T05:08:45.085Z,5200
2017-07-08T05:09:25.616Z,5236
2017-07-08T05:10:06.077Z,5120
2017-07-08T05:10:46.551Z,4956
2017-07-08T05:11:27.068Z,4732
2017-07-08T05:12:07.565Z,4508
2017-07-08T05:12:48.074Z,4368
2017-07-08T05:13:28.592Z,4360
2017-07-08T05:14:09.113Z,4408
2017-07-08T05:14:49.590Z,4412
2017-07-08T05:15:30.101Z,4592
2017-07-08T05:16:10.628Z,4684
2017-07-08T05:16:51.145Z,4844
2017-07-08T05:17:31.654Z,5240
2017-07-08T05:18:12.175Z,5552
2017-07-08T05:18:52.710Z,5600
2017-07-08T05:19:33.225Z,5424
2017-07-08T05:20:13.755Z,5104
2017-07-08T05:20:54.273Z,5120
2017-07-08T05:21:34.773Z,5112
2017-07-08T05:22:15.276Z,5304
2017-07-08T05:22:55.786Z,5484
2017-07-08T05:23:36.304Z,5552
2017-07-08T05:24:16.830Z,5436
2017-07-08T05:24:57.336Z,5352
2017-07-08T05:25:37.861Z,5244
2017-07-08T05:26:18.342Z,5120
2017-07-08T05:26:58.880Z,4988
2017-07-08T05:27:39.370Z,4968
2017-07-08T05:28:19.879Z,5004
2017-07-08T05:29:00.377Z,5052
2017-07-08T05:29:40.892Z,5240
2017-07-08T05:30:21.415Z,5448
2017-07-08T05:31:01.932Z,5608
2017-07-08T05:31:42.445Z,5640
2017-07-08T05:32:22.962Z,6388
2017-07-08T05:33:03.472Z,7244
2017-07-08T05:33:44.216Z,8176
2017-07-08T05:34:24.737Z,7588
2017-07-08T05:35:05.284Z,5972
2017-07-08T05:35:45.815Z,5576
2017-07-08T05:36:26.262Z,5384
2017-07-08T05:37:06.742Z,5312
2017-07-08T05:37:47.254Z,5280
2017-07-08T05:38:27.750Z,5316
2017-07-08T05:39:08.252Z,5340
2017-07-08T05:39:48.771Z,5384
2017-07-08T05:40:29.294Z,5416
2017-07-08T05:41:09.805Z,5440
2017-07-08T05:43:22.729Z,5492
2017-07-08T05:44:03.255Z,5500
2017-07-08T05:44:43.786Z,5540
2017-07-08T05:45:24.336Z,5600
2017-07-08T05:46:04.862Z,5628
2017-07-08T05:46:45.403Z,5700
2017-07-08T05:47:25.850Z,5728
2017-07-08T05:48:06.374Z,5780
2017-07-08T05:48:46.922Z,5780
2017-07-08T05:49:27.423Z,5816
2017-07-08T05:50:07.933Z,5908
2017-07-08T05:50:48.464Z,5932
2017-07-08T05:51:29.081Z,6000
2017-07-08T05:52:09.613Z,5944
2017-07-08T05:52:50.088Z,5976
2017-07-08T05:53:30.599Z,6028
2017-07-08T05:54:11.112Z,6112
2017-07-08T05:54:51.766Z,6216
2017-07-08T05:55:32.290Z,6684
2017-07-08T05:56:12.783Z,6792
2017-07-08T05:56:53.305Z,6580
2017-07-08T05:57:33.838Z,7320
2017-07-08T05:58:14.342Z,10400
2017-07-08T05:58:54.845Z,13004
2017-07-08T05:59:35.463Z,14152
2017-07-08T06:00:16.021Z,15184
2017-07-08T06:00:56.539Z,15252
2017-07-08T06:01:37.055Z,15548
2017-07-08T06:02:17.544Z,15452
2017-07-08T06:02:58.049Z,15120
2017-07-08T06:03:38.597Z,14936
2017-07-08T06:04:19.070Z,14568
2017-07-08T06:04:59.580Z,14128
2017-07-08T06:05:40.099Z,13372
2017-07-08T06:06:20.631Z,13552
2017-07-08T06:07:01.148Z,13756
2017-07-08T06:07:41.659Z,12852
2017-07-08T06:08:22.183Z,14628
2017-07-08T06:09:02.691Z,12528
2017-07-08T06:09:43.206Z,9184
2017-07-08T06:10:23.749Z,8728
2017-07-08T06:11:04.251Z,9248
2017-07-08T06:11:44.791Z,7744
2017-07-08T06:12:31.960Z,6708
2017-07-08T06:13:12.679Z,6632
2017-07-08T06:13:53.128Z,6488
2017-07-08T06:14:33.621Z,6268
2017-07-08T06:15:14.128Z,6068
2017-07-08T06:15:54.634Z,6016
2017-07-08T06:16:35.199Z,6376
2017-07-08T06:17:16.399Z,7064
2017-07-08T06:17:56.934Z,7612
2017-07-08T06:18:37.395Z,8348
2017-07-08T06:19:17.919Z,7992
2017-07-08T06:19:58.397Z,7952
2017-07-08T06:20:38.932Z,7792
2017-07-08T06:21:19.398Z,7400
2017-07-08T06:21:59.947Z,6972
2017-07-08T06:22:40.446Z,6608
2017-07-08T06:23:20.993Z,6260
2017-07-08T06:24:01.475Z,5960
2017-07-08T06:24:42.112Z,5772
2017-07-08T06:25:22.802Z,5652
2017-07-08T06:26:03.276Z,5600
2017-07-08T06:26:43.953Z,5604
2017-07-08T06:27:24.396Z,5660
2017-07-08T06:28:04.887Z,5716
2017-07-08T06:28:45.382Z,5840
2017-07-08T06:29:25.908Z,5968
2017-07-08T06:30:06.437Z,6048
2017-07-08T06:30:47.035Z,6096
2017-07-08T06:31:27.500Z,6188
2017-07-08T06:32:07.995Z,6292
2017-07-08T06:32:48.539Z,6376
2017-07-08T06:33:29.002Z,6480
2017-07-08T06:34:09.521Z,6628
2017-07-08T06:34:50.045Z,6788
2017-07-08T06:35:30.562Z,6860
2017-07-08T06:36:11.110Z,6932
2017-07-08T06:36:51.608Z,7032
2017-07-08T06:37:32.123Z,7128
2017-07-08T06:38:12.635Z,7268
2017-07-08T06:38:53.113Z,7404
2017-07-08T06:39:33.595Z,7608
2017-07-08T06:40:14.127Z,7820
2017-07-08T06:40:54.637Z,7944
2017-07-08T06:41:35.129Z,8116
2017-07-08T06:42:15.608Z,8240
2017-07-08T06:42:56.232Z,8404
2017-07-08T06:43:36.921Z,8512
2017-07-08T06:44:17.387Z,8644
2017-07-08T06:44:57.883Z,8732
2017-07-08T06:45:38.437Z,9912
2017-07-08T06:46:18.935Z,8708
2017-07-08T06:46:59.496Z,8688
2017-07-08T06:47:39.980Z,9060
2017-07-08T06:48:20.561Z,8596
2017-07-08T06:49:01.131Z,8584
2017-07-08T06:49:41.797Z,8608
2017-07-08T06:50:23.106Z,8560
2017-07-08T06:51:02.796Z,8480
2017-07-08T06:51:43.316Z,8508
2017-07-08T06:52:24.009Z,8664
2017-07-08T06:53:04.548Z,8920
2017-07-08T06:53:46.072Z,9080
2017-07-08T06:54:25.671Z,9164
2017-07-08T06:55:06.191Z,9088
2017-07-08T06:55:46.675Z,9044
2017-07-08T06:56:27.193Z,8860
2017-07-08T06:57:07.711Z,8528
2017-07-08T06:57:48.229Z,8288
2017-07-08T06:58:28.743Z,8180
2017-07-08T06:59:09.257Z,8184
2017-07-08T06:59:49.757Z,8328
2017-07-08T07:00:30.283Z,8456
2017-07-08T07:01:10.856Z,8260
2017-07-08T07:01:51.284Z,8208
2017-07-08T07:02:31.861Z,8344
2017-07-08T07:03:12.361Z,8136
2017-07-08T07:03:52.865Z,8004
2017-07-08T07:04:33.384Z,8004
2017-07-08T07:05:13.873Z,8004
2017-07-08T07:05:54.386Z,8148
2017-07-08T07:06:34.889Z,8064
2017-07-08T07:07:15.393Z,8268
2017-07-08T07:07:55.887Z,8256
2017-07-08T07:08:36.454Z,8468
2017-07-08T07:09:16.936Z,8900
2017-07-08T07:09:57.514Z,9776
2017-07-08T07:10:38.176Z,9556
2017-07-08T07:11:18.677Z,9232
2017-07-08T07:12:00.159Z,9556
2017-07-08T07:12:41.867Z,9416
2017-07-08T07:13:23.466Z,9668
2017-07-08T07:14:05.195Z,9564
2017-07-08T07:14:46.719Z,9588
2017-07-08T07:15:27.867Z,10004
2017-07-08T07:16:08.514Z,10024
2017-07-08T07:16:49.024Z,9476
2017-07-08T07:17:29.540Z,10408
2017-07-08T07:18:10.081Z,11448
2017-07-08T07:18:50.611Z,10476
2017-07-08T07:19:31.142Z,10364
2017-07-08T07:20:11.618Z,10264
2017-07-08T07:20:52.109Z,9200
2017-07-08T07:21:32.640Z,8508
2017-07-08T07:22:13.152Z,8588
2017-07-08T07:22:53.737Z,9372
2017-07-08T07:23:34.227Z,8356
2017-07-08T07:24:14.814Z,8388
2017-07-08T07:24:55.269Z,7512
2017-07-08T07:25:35.813Z,7572
2017-07-08T07:26:16.323Z,7444
2017-07-08T07:26:56.848Z,8168
2017-07-08T07:27:37.356Z,7424
2017-07-08T07:28:17.871Z,7448
2017-07-08T07:28:58.321Z,6924
2017-07-08T07:29:38.838Z,6512
2017-07-08T07:30:19.328Z,6332
2017-07-08T07:30:59.835Z,6084
2017-07-08T07:31:40.333Z,6228
2017-07-08T07:32:20.938Z,6008
2017-07-08T07:33:01.405Z,6144
2017-07-08T07:33:42.009Z,6556
2017-07-08T07:34:22.482Z,7084
2017-07-08T07:35:03.009Z,7404
2017-07-08T07:35:43.541Z,7760
2017-07-08T07:36:24.099Z,8008
2017-07-08T07:37:04.564Z,8004
2017-07-08T07:37:45.043Z,8024
2017-07-08T07:38:25.785Z,8016
2017-07-08T07:39:06.313Z,7840
2017-07-08T07:39:46.798Z,7932
2017-07-08T07:40:27.377Z,8016
2017-07-08T07:41:07.857Z,8000
2017-07-08T07:41:48.420Z,7976
2017-07-08T07:42:28.880Z,7952
2017-07-08T07:43:09.436Z,7928
2017-07-08T07:43:49.928Z,7924
2017-07-08T07:44:30.641Z,7908
2017-07-08T07:45:10.972Z,7848
2017-07-08T07:45:51.451Z,7840
2017-07-08T07:46:31.953Z,7820
2017-07-08T07:47:12.597Z,7788
2017-07-08T07:47:53.028Z,7728
2017-07-08T07:48:33.534Z,7720
2017-07-08T07:49:14.039Z,7668
2017-07-08T07:49:54.585Z,7644
2017-07-08T07:50:35.160Z,7640
2017-07-08T07:51:15.648Z,7604
2017-07-08T07:51:56.145Z,7584
2017-07-08T07:52:36.681Z,7540
2017-07-08T07:53:17.165Z,7508
2017-07-08T07:53:57.710Z,7492
2017-07-08T07:54:38.196Z,7480
2017-07-08T07:55:18.704Z,7432
2017-07-08T07:55:59.275Z,7332
2017-07-08T07:56:39.888Z,7448
2017-07-08T07:57:20.473Z,7360
2017-07-08T07:58:00.971Z,7316
2017-07-08T07:58:41.498Z,7304
2017-07-08T07:59:21.993Z,7256
2017-07-08T08:00:02.488Z,7224
2017-07-08T08:00:43.158Z,7172
2017-07-08T08:01:23.840Z,7132
2017-07-08T08:02:04.437Z,7080
2017-07-08T08:02:45.067Z,7036
2017-07-08T08:03:25.566Z,6976
2017-07-08T08:04:07.642Z,6956
2017-07-08T08:04:47.220Z,6928
2017-07-08T08:05:27.724Z,6876
2017-07-08T08:06:08.256Z,6904
2017-07-08T08:06:48.780Z,6872
2017-07-08T08:07:29.767Z,6868
2017-07-08T08:08:10.283Z,6800
2017-07-08T08:08:50.789Z,6768
2017-07-08T08:09:31.299Z,6740
2017-07-08T08:10:11.788Z,6696
2017-07-08T08:10:52.317Z,6656
2017-07-08T08:11:32.790Z,6608
2017-07-08T08:12:13.322Z,6608
2017-07-08T08:12:53.829Z,6576
2017-07-08T08:13:34.396Z,6540
2017-07-08T08:14:14.843Z,6516
2017-07-08T08:14:55.430Z,6480
2017-07-08T08:15:36.053Z,6452
2017-07-08T08:16:16.495Z,6416
2017-07-08T08:16:56.974Z,6376
2017-07-08T08:17:37.425Z,6340
2017-07-08T08:18:17.946Z,6296
2017-07-08T08:18:58.473Z,6256
2017-07-08T08:19:38.987Z,6204
2017-07-08T08:20:19.530Z,6172
2017-07-08T08:20:59.996Z,6160
2017-07-08T08:21:40.484Z,6144
2017-07-08T08:22:21.063Z,6076
2017-07-08T08:23:01.595Z,6048
2017-07-08T08:23:42.077Z,6008
2017-07-08T08:24:22.614Z,5972
2017-07-08T08:25:03.199Z,5940
2017-07-08T08:25:43.729Z,5964
2017-07-08T08:26:24.270Z,5940
2017-07-08T08:27:04.800Z,5904
2017-07-08T08:27:45.493Z,5848
2017-07-08T08:28:26.000Z,5780
2017-07-08T08:29:06.494Z,5728
2017-07-08T08:29:47.210Z,5684
2017-07-08T08:30:27.754Z,5580
2017-07-08T08:31:08.298Z,5472
2017-07-08T08:31:48.776Z,5368
2017-07-08T08:32:29.411Z,5248
2017-07-08T08:33:09.977Z,5172
2017-07-08T08:33:50.472Z,5128
2017-07-08T08:34:30.902Z,5108
2017-07-08T08:35:11.563Z,5100
2017-07-08T08:35:52.052Z,5076
2017-07-08T08:36:32.555Z,5044
2017-07-08T08:37:13.113Z,5028
2017-07-08T08:37:53.622Z,5028
2017-07-08T08:38:34.166Z,5020
2017-07-08T08:39:14.664Z,5012
2017-07-08T08:39:55.168Z,5000
2017-07-08T08:40:35.652Z,4988
2017-07-08T08:41:16.154Z,4996
2017-07-08T08:41:56.648Z,4988
2017-07-08T08:42:37.184Z,4972
2017-07-08T08:43:17.705Z,4976
2017-07-08T08:43:58.263Z,4972
2017-07-08T08:44:38.743Z,4972
2017-07-08T08:45:19.215Z,4948
2017-07-08T08:45:59.758Z,4904
2017-07-08T08:46:40.258Z,4880
2017-07-08T08:47:20.766Z,4860
2017-07-08T08:48:01.307Z,4840
2017-07-08T08:48:41.832Z,4820
2017-07-08T08:49:22.303Z,4816
2017-07-08T08:50:02.811Z,4792
2017-07-08T08:50:43.305Z,4788
2017-07-08T08:51:23.846Z,4764
2017-07-08T08:52:04.340Z,4748
2017-07-08T08:52:44.850Z,4732
2017-07-08T08:53:25.631Z,4736
2017-07-08T08:54:06.121Z,4732
2017-07-08T08:54:46.771Z,4720
2017-07-08T08:55:27.166Z,4720
2017-07-08T08:56:07.717Z,4700
2017-07-08T08:56:48.242Z,4680
2017-07-08T08:57:28.729Z,4672
2017-07-08T08:58:09.190Z,4652
2017-07-08T08:58:49.821Z,4620
2017-07-08T08:59:30.252Z,4600
2017-07-08T09:00:10.825Z,4576
2017-07-08T09:00:51.477Z,4564
2017-07-08T09:01:32.163Z,4552
2017-07-08T09:02:13.394Z,4552
2017-07-08T09:02:53.807Z,4512
2017-07-08T09:03:34.412Z,4500
2017-07-08T09:04:15.075Z,4492
2017-07-08T09:04:55.675Z,4488
2017-07-08T09:05:36.178Z,4496
2017-07-08T09:06:16.733Z,4464
2017-07-08T09:06:57.206Z,4468
2017-07-08T09:07:37.769Z,4464
2017-07-08T09:08:18.306Z,4448
2017-07-08T09:08:58.780Z,4440
2017-07-08T09:09:39.416Z,4428
2017-07-08T09:10:19.778Z,4428
2017-07-08T09:11:00.372Z,4424
2017-07-08T09:11:40.784Z,4400
2017-07-08T09:12:21.290Z,4396
2017-07-08T09:13:01.800Z,4388
2017-07-08T09:13:42.286Z,4380
2017-07-08T09:14:22.818Z,4364
2017-07-08T09:15:03.294Z,4360
2017-07-08T09:15:43.775Z,4368
2017-07-08T09:16:24.290Z,4356
2017-07-08T09:17:04.831Z,4368
2017-07-08T09:17:45.340Z,4356
2017-07-08T09:18:25.864Z,4348
2017-07-08T09:19:06.411Z,4344
2017-07-08T09:19:47.199Z,4336
2017-07-08T09:20:27.574Z,4328
2017-07-08T09:21:08.077Z,4312
2017-07-08T09:21:48.569Z,4292
2017-07-08T09:22:29.045Z,4288
2017-07-08T09:23:09.572Z,4288